createdAt,value
2022-12-25T00:02:03.128Z,97048.78
2022-12-25T00:07:06.411Z,97072.31
2022-12-25T00:12:08.391Z,97073.66
2022-12-25T00:17:10.414Z,97073.94
2022-12-25T00:22:13.723Z,97078.66
2022-12-25T00:27:16.470Z,97090.53
2022-12-25T00:32:18.474Z,97108.69
2022-12-25T00:37:21.761Z,97111.91
2022-12-25T00:42:23.886Z,97112.38
2022-12-25T00:47:25.861Z,97126.78
2022-12-25T00:52:29.169Z,97132.59
2022-12-25T00:57:31.420Z,97133.75
2022-12-25T01:02:33.532Z,97142.31
2022-12-25T01:07:37.231Z,97152.13
2022-12-25T01:12:42.052Z,97154.97
2022-12-25T01:17:44.514Z,97175.63
2022-12-25T01:22:47.805Z,97166.25
2022-12-25T01:27:49.767Z,97176.16
2022-12-25T01:32:51.712Z,97164.53
2022-12-25T01:37:55.441Z,97169.91
2022-12-25T01:42:57.441Z,97176.81
2022-12-25T01:48:01.448Z,97177.47
2022-12-25T01:53:05.966Z,97193.00
2022-12-25T01:58:08.161Z,97198.16
2022-12-25T02:03:10.180Z,97207.47
2022-12-25T02:08:16.397Z,97198.56
2022-12-25T02:13:20.176Z,97199.69
2022-12-25T02:18:34.000Z,97190.34
2022-12-25T02:23:56.952Z,97186.94
2022-12-25T02:29:05.145Z,97202.97
2022-12-25T02:34:14.663Z,97201.78
2022-12-25T02:39:42.295Z,97201.88
2022-12-25T02:45:08.377Z,97199.22
2022-12-25T02:50:29.692Z,97195.06
2022-12-25T02:55:56.398Z,97187.16
2022-12-25T03:01:24.984Z,97202.00
2022-12-25T03:06:43.501Z,97204.72
2022-12-25T03:11:47.533Z,97199.25
2022-12-25T03:16:54.236Z,97196.84
2022-12-25T03:22:16.124Z,97196.84
2022-12-25T03:27:18.205Z,97200.59
2022-12-25T03:32:29.295Z,97206.63
2022-12-25T03:37:44.232Z,97203.66
2022-12-25T03:43:11.248Z,97206.81
2022-12-25T03:48:35.159Z,97202.56
2022-12-25T03:53:59.311Z,97207.81
2022-12-25T03:59:23.876Z,97222.31
2022-12-25T04:04:46.156Z,97221.00
2022-12-25T04:10:06.375Z,97224.53
2022-12-25T04:15:28.508Z,97240.34
2022-12-25T04:20:50.549Z,97253.53
2022-12-25T04:26:11.340Z,97254.41
2022-12-25T04:31:32.188Z,97254.63
2022-12-25T04:36:35.543Z,97253.53
2022-12-25T04:41:37.463Z,97249.69
2022-12-25T04:46:39.511Z,97254.53
2022-12-25T04:51:42.848Z,97264.97
2022-12-25T04:56:45.997Z,97261.88
2022-12-25T05:01:48.168Z,97266.94
2022-12-25T05:06:51.535Z,97261.19
2022-12-25T05:11:53.534Z,97274.53
2022-12-25T05:16:55.493Z,97276.06
2022-12-25T05:21:58.915Z,97284.84
2022-12-25T05:27:00.922Z,97286.47
2022-12-25T05:32:02.998Z,97281.00
2022-12-25T05:37:06.382Z,97269.56
2022-12-25T05:42:08.324Z,97269.69
2022-12-25T05:47:10.367Z,97277.00
2022-12-25T05:52:13.676Z,97285.78
2022-12-25T05:57:15.649Z,97290.06
2022-12-25T06:02:17.646Z,97295.53
2022-12-25T06:07:21.217Z,97300.03
2022-12-25T06:12:23.176Z,97306.69
2022-12-25T06:17:25.705Z,97324.28
2022-12-25T06:22:30.243Z,97318.25
2022-12-25T06:27:32.389Z,97314.41
2022-12-25T06:32:34.365Z,97336.84
2022-12-25T06:37:37.643Z,97341.41
2022-12-25T06:42:39.691Z,97338.44
2022-12-25T06:47:41.637Z,97349.72
2022-12-25T06:52:46.098Z,97354.34
2022-12-25T06:57:48.109Z,97348.41
2022-12-25T07:02:50.439Z,97370.97
2022-12-25T07:07:53.991Z,97389.31
2022-12-25T07:12:55.983Z,97397.91
2022-12-25T07:17:57.928Z,97400.06
2022-12-25T07:23:01.248Z,97415.66
2022-12-25T07:28:03.455Z,97415.28
2022-12-25T07:33:05.423Z,97423.28
2022-12-25T07:38:08.865Z,97410.91
2022-12-25T07:43:10.825Z,97420.94
2022-12-25T07:48:16.697Z,97421.91
2022-12-25T07:53:20.419Z,97427.75
2022-12-25T07:58:23.621Z,97426.00
2022-12-25T08:03:25.839Z,97429.63
2022-12-25T08:08:29.501Z,97427.53
2022-12-25T08:13:32.326Z,97424.94
2022-12-25T08:18:35.333Z,97425.09
2022-12-25T08:23:41.105Z,97433.34
2022-12-25T08:28:43.429Z,97430.72
2022-12-25T08:33:46.445Z,97420.72
2022-12-25T08:38:50.270Z,97428.41
2022-12-25T08:43:52.195Z,97426.22
2022-12-25T08:48:54.260Z,97437.63
2022-12-25T08:53:59.971Z,97444.38
2022-12-25T08:59:03.039Z,97455.38
2022-12-25T09:04:05.305Z,97450.56
2022-12-25T09:09:08.681Z,97451.25
2022-12-25T09:14:10.749Z,97454.75
2022-12-25T09:19:12.698Z,97458.25
2022-12-25T09:24:16.081Z,97452.84
2022-12-25T09:29:18.160Z,97455.63
2022-12-25T09:34:20.116Z,97452.38
2022-12-25T09:39:23.459Z,97454.72
2022-12-25T09:44:28.892Z,97455.97
2022-12-25T09:49:38.705Z,97463.56
2022-12-25T09:54:46.443Z,97456.53
2022-12-25T09:59:48.659Z,97463.13
2022-12-25T10:05:12.829Z,97457.16
2022-12-25T10:10:35.286Z,97462.31
2022-12-25T10:15:48.294Z,97461.88
2022-12-25T10:20:52.636Z,97455.59
2022-12-25T10:25:56.281Z,97461.31
2022-12-25T10:31:02.076Z,97461.63
2022-12-25T10:36:04.555Z,97458.75
2022-12-25T10:41:25.399Z,97449.97
2022-12-25T10:46:29.596Z,97447.28
2022-12-25T10:51:34.100Z,97446.41
2022-12-25T10:56:37.468Z,97432.44
2022-12-25T11:01:39.410Z,97420.94
2022-12-25T11:06:42.781Z,97423.13
2022-12-25T11:11:47.014Z,97437.63
2022-12-25T11:16:49.920Z,97441.31
2022-12-25T11:21:54.395Z,97418.00
2022-12-25T11:27:00.329Z,97412.78
2022-12-25T11:32:05.711Z,97401.94
2022-12-25T11:37:14.074Z,97397.28
2022-12-25T11:42:22.579Z,97400.03
2022-12-25T11:47:30.978Z,97389.22
2022-12-25T11:52:36.404Z,97388.34
2022-12-25T11:57:41.686Z,97388.56
2022-12-25T12:02:47.310Z,97389.97
2022-12-25T12:07:55.392Z,97392.22
2022-12-25T12:13:07.620Z,97384.97
2022-12-25T12:18:18.739Z,97378.06
2022-12-25T12:23:20.823Z,97366.78
2022-12-25T12:28:26.868Z,97365.00
2022-12-25T12:33:34.736Z,97371.91
2022-12-25T12:38:37.107Z,97377.63
2022-12-25T12:43:44.538Z,97362.09
2022-12-25T12:48:49.277Z,97354.09
2022-12-25T12:53:51.311Z,97352.44
2022-12-25T12:58:54.790Z,97359.50
2022-12-25T13:04:19.613Z,97375.97
2022-12-25T13:09:33.109Z,97370.88
2022-12-25T13:14:37.959Z,97375.66
2022-12-25T13:19:42.941Z,97380.22
2022-12-25T13:24:56.166Z,97387.72
2022-12-25T13:30:00.069Z,97384.16
2022-12-25T13:35:02.336Z,97392.75
2022-12-25T13:40:07.079Z,97390.13
2022-12-25T13:45:22.544Z,97371.44
2022-12-25T13:50:26.924Z,97366.97
2022-12-25T13:55:30.468Z,97375.41
2022-12-25T14:00:37.387Z,97383.28
2022-12-25T14:05:43.047Z,97385.78
2022-12-25T14:10:49.443Z,97363.31
2022-12-25T14:15:56.358Z,97369.50
2022-12-25T14:21:01.539Z,97369.78
2022-12-25T14:26:03.649Z,97368.31
2022-12-25T14:31:12.154Z,97363.50
2022-12-25T14:36:14.413Z,97346.28
2022-12-25T14:41:33.455Z,97337.97
2022-12-25T14:46:37.314Z,97337.63
2022-12-25T14:51:39.422Z,97317.09
2022-12-25T14:56:47.634Z,97322.28
2022-12-25T15:01:54.279Z,97328.94
2022-12-25T15:06:59.434Z,97354.38
2022-12-25T15:12:02.342Z,97360.78
2022-12-25T15:17:05.831Z,97355.94
2022-12-25T15:22:10.043Z,97345.53
2022-12-25T15:27:15.344Z,97335.41
2022-12-25T15:32:20.852Z,97322.28
2022-12-25T15:37:22.829Z,97322.53
2022-12-25T15:42:25.402Z,97325.06
2022-12-25T15:47:28.730Z,97308.81
2022-12-25T15:52:31.162Z,97293.63
2022-12-25T15:57:35.060Z,97287.13
2022-12-25T16:02:38.599Z,97288.47
2022-12-25T16:07:40.863Z,97283.41
2022-12-25T16:12:43.500Z,97287.25
2022-12-25T16:17:46.811Z,97279.91
2022-12-25T16:22:48.881Z,97263.28
2022-12-25T16:27:50.886Z,97264.47
2022-12-25T16:32:54.256Z,97271.59
2022-12-25T16:37:56.287Z,97276.50
2022-12-25T16:42:58.476Z,97282.50
2022-12-25T16:48:01.771Z,97267.00
2022-12-25T16:53:03.742Z,97260.88
2022-12-25T16:58:06.256Z,97239.56
2022-12-25T17:03:09.736Z,97236.72
2022-12-25T17:08:11.825Z,97246.06
2022-12-25T17:13:13.845Z,97225.00
2022-12-25T17:18:17.523Z,97215.19
2022-12-25T17:23:20.217Z,97201.03
2022-12-25T17:28:22.244Z,97203.72
2022-12-25T17:33:25.772Z,97206.41
2022-12-25T17:38:29.322Z,97191.91
2022-12-25T17:43:31.765Z,97188.25
2022-12-25T17:48:38.016Z,97195.16
2022-12-25T17:53:43.266Z,97198.66
2022-12-25T17:58:50.638Z,97206.97
2022-12-25T18:03:54.983Z,97193.50
2022-12-25T18:08:57.958Z,97191.09
2022-12-25T18:14:02.596Z,97194.75
2022-12-25T18:19:06.383Z,97200.25
2022-12-25T18:24:08.985Z,97183.38
2022-12-25T18:29:11.531Z,97176.81
2022-12-25T18:34:15.525Z,97153.97
2022-12-25T18:39:17.526Z,97148.47
2022-12-25T18:44:19.571Z,97146.00
2022-12-25T18:49:22.902Z,97153.53
2022-12-25T18:54:25.334Z,97143.44
2022-12-25T18:59:28.216Z,97147.88
2022-12-25T19:04:31.587Z,97154.94
2022-12-25T19:09:33.483Z,97135.91
2022-12-25T19:14:47.397Z,97143.13
2022-12-25T19:19:52.590Z,97112.19
2022-12-25T19:24:54.544Z,97112.94
2022-12-25T19:29:56.530Z,97123.06
2022-12-25T19:35:04.267Z,97115.53
2022-12-25T19:40:06.969Z,97133.47
2022-12-25T19:45:09.638Z,97123.50
2022-12-25T19:50:13.042Z,97107.13
2022-12-25T19:55:15.192Z,97083.97
2022-12-25T20:00:17.963Z,97077.38
2022-12-25T20:05:21.270Z,97080.13
2022-12-25T20:10:23.593Z,97113.25
2022-12-25T20:15:25.595Z,97108.81
2022-12-25T20:20:29.438Z,97093.19
2022-12-25T20:25:31.751Z,97077.25
2022-12-25T20:30:33.815Z,97051.34
2022-12-25T20:35:37.141Z,97042.44
2022-12-25T20:41:08.056Z,97036.78
2022-12-25T20:46:01.237Z,97021.91
2022-12-25T20:51:09.836Z,97009.97
2022-12-25T20:56:13.815Z,96979.94
2022-12-25T21:01:17.530Z,97005.81
2022-12-25T21:06:21.614Z,97010.56
2022-12-25T21:11:23.725Z,96985.63
2022-12-25T21:16:26.089Z,96982.38
2022-12-25T21:21:29.497Z,96962.91
2022-12-25T21:26:31.803Z,96952.81
2022-12-25T21:31:52.732Z,96976.44
2022-12-25T21:36:56.066Z,96948.69
2022-12-25T21:41:58.047Z,96941.66
2022-12-25T21:47:00.070Z,96945.66
2022-12-25T21:52:09.659Z,96969.38
2022-12-25T21:57:11.743Z,96963.75
2022-12-25T22:02:13.865Z,96947.47
2022-12-25T22:07:17.328Z,96916.56
2022-12-25T22:12:39.340Z,96947.19
2022-12-25T22:18:01.721Z,96950.72
2022-12-25T22:23:05.688Z,96924.69
2022-12-25T22:28:08.473Z,96924.69
2022-12-25T22:33:10.559Z,96911.81
2022-12-25T22:38:13.937Z,96885.94
2022-12-25T22:43:15.783Z,96896.38
2022-12-25T22:48:17.792Z,96885.63
2022-12-25T22:53:21.142Z,96886.56
2022-12-25T22:58:22.978Z,96924.06
2022-12-25T23:03:25.064Z,96898.00
2022-12-25T23:08:28.621Z,96881.28
2022-12-25T23:13:49.187Z,96883.44
2022-12-25T23:19:10.039Z,96907.16
2022-12-25T23:24:32.112Z,96904.88
2022-12-25T23:29:37.226Z,96893.09
2022-12-25T23:34:41.608Z,96897.22
2022-12-25T23:39:45.222Z,96885.69
2022-12-25T23:44:47.221Z,96874.41
2022-12-25T23:49:49.162Z,96873.63
2022-12-25T23:54:52.893Z,96874.41
2022-12-25T23:59:54.834Z,96869.03
